sensor_id;sensor_type;location;lat;lon;timestamp;P1;durP1;ratioP1;P2;durP2;ratioP2
11996;SDS011;6058;48.704;9.474;2024-03-23T00:54:33;3.80;;;3.43;;
11996;SDS011;6058;48.704;9.474;2024-03-23T00:57:01;4.97;;;3.70;;
11996;SDS011;6058;48.704;9.474;2024-03-23T00:59:27;5.10;;;3.53;;
11996;SDS011;6058;48.704;9.474;2024-03-23T01:01:56;6.00;;;3.97;;
11996;SDS011;6058;48.704;9.474;2024-03-23T01:04:22;8.30;;;4.10;;
11996;SDS011;6058;48.704;9.474;2024-03-23T01:06:49;5.87;;;4.07;;
11996;SDS011;6058;48.704;9.474;2024-03-23T01:09:16;7.73;;;3.90;;
11996;SDS011;6058;48.704;9.474;2024-03-23T01:11:44;5.90;;;4.40;;
11996;SDS011;6058;48.704;9.474;2024-03-23T01:14:11;5.37;;;4.30;;
11996;SDS011;6058;48.704;9.474;2024-03-23T01:16:38;7.63;;;4.80;;
11996;SDS011;6058;48.704;9.474;2024-03-23T01:19:05;5.20;;;4.37;;
11996;SDS011;6058;48.704;9.474;2024-03-23T01:21:31;6.73;;;4.53;;
11996;SDS011;6058;48.704;9.474;2024-03-23T01:23:58;5.97;;;4.07;;
11996;SDS011;6058;48.704;9.474;2024-03-23T01:26:24;9.70;;;3.87;;
11996;SDS011;6058;48.704;9.474;2024-03-23T01:28:53;5.93;;;4.13;;
11996;SDS011;6058;48.704;9.474;2024-03-23T01:31:19;7.00;;;3.93;;
11996;SDS011;6058;48.704;9.474;2024-03-23T01:33:46;5.80;;;3.37;;
11996;SDS011;6058;48.704;9.474;2024-03-23T01:36:12;4.90;;;4.17;;
11996;SDS011;6058;48.704;9.474;2024-03-23T01:38:39;8.10;;;4.47;;
11996;SDS011;6058;48.704;9.474;2024-03-23T01:41:05;4.90;;;3.73;;
11996;SDS011;6058;48.704;9.474;2024-03-23T01:43:33;9.23;;;4.43;;
11996;SDS011;6058;48.704;9.474;2024-03-23T01:46:00;4.77;;;4.27;;
11996;SDS011;6058;48.704;9.474;2024-03-23T01:48:27;5.93;;;4.27;;
11996;SDS011;6058;48.704;9.474;2024-03-23T01:50:53;6.80;;;4.27;;
11996;SDS011;6058;48.704;9.474;2024-03-23T01:53:21;6.57;;;4.20;;
11996;SDS011;6058;48.704;9.474;2024-03-23T01:55:48;5.70;;;3.70;;
11996;SDS011;6058;48.704;9.474;2024-03-23T01:58:16;6.87;;;4.37;;
11996;SDS011;6058;48.704;9.474;2024-03-23T02:00:42;5.87;;;4.00;;
11996;SDS011;6058;48.704;9.474;2024-03-23T02:03:23;5.60;;;4.33;;
11996;SDS011;6058;48.704;9.474;2024-03-23T02:05:49;6.77;;;4.43;;
11996;SDS011;6058;48.704;9.474;2024-03-23T02:08:17;4.33;;;3.63;;
11996;SDS011;6058;48.704;9.474;2024-03-23T02:10:43;6.83;;;4.00;;
11996;SDS011;6058;48.704;9.474;2024-03-23T02:13:10;7.37;;;4.57;;
11996;SDS011;6058;48.704;9.474;2024-03-23T02:15:37;4.30;;;3.77;;
11996;SDS011;6058;48.704;9.474;2024-03-23T02:18:04;4.83;;;4.13;;
11996;SDS011;6058;48.704;9.474;2024-03-23T02:20:31;6.80;;;5.07;;
11996;SDS011;6058;48.704;9.474;2024-03-23T02:23:00;5.70;;;4.07;;
11996;SDS011;6058;48.704;9.474;2024-03-23T02:25:26;6.07;;;4.23;;
11996;SDS011;6058;48.704;9.474;2024-03-23T02:27:53;5.97;;;4.00;;
11996;SDS011;6058;48.704;9.474;2024-03-23T02:30:20;4.97;;;3.93;;
11996;SDS011;6058;48.704;9.474;2024-03-23T02:32:47;4.70;;;4.20;;
11996;SDS011;6058;48.704;9.474;2024-03-23T02:35:13;5.17;;;4.07;;
11996;SDS011;6058;48.704;9.474;2024-03-23T02:37:40;4.77;;;3.90;;
11996;SDS011;6058;48.704;9.474;2024-03-23T02:40:08;5.20;;;4.13;;
11996;SDS011;6058;48.704;9.474;2024-03-23T02:42:35;4.67;;;4.17;;
11996;SDS011;6058;48.704;9.474;2024-03-23T02:45:02;4.77;;;4.23;;
11996;SDS011;6058;48.704;9.474;2024-03-23T02:47:31;4.23;;;3.83;;
11996;SDS011;6058;48.704;9.474;2024-03-23T02:49:58;4.73;;;3.77;;
11996;SDS011;6058;48.704;9.474;2024-03-23T02:52:25;8.13;;;4.30;;
11996;SDS011;6058;48.704;9.474;2024-03-23T02:54:51;5.87;;;4.60;;
11996;SDS011;6058;48.704;9.474;2024-03-23T02:57:19;7.73;;;4.80;;
11996;SDS011;6058;48.704;9.474;2024-03-23T02:59:45;4.43;;;4.03;;
11996;SDS011;6058;48.704;9.474;2024-03-23T03:02:13;5.00;;;3.93;;
11996;SDS011;6058;48.704;9.474;2024-03-23T03:04:39;7.83;;;4.20;;
11996;SDS011;6058;48.704;9.474;2024-03-23T03:07:06;9.50;;;4.40;;
11996;SDS011;6058;48.704;9.474;2024-03-23T03:09:32;6.50;;;4.73;;
11996;SDS011;6058;48.704;9.474;2024-03-23T03:12:00;4.67;;;4.17;;
11996;SDS011;6058;48.704;9.474;2024-03-23T03:14:28;4.70;;;3.83;;
11996;SDS011;6058;48.704;9.474;2024-03-23T03:16:55;5.03;;;4.03;;
11996;SDS011;6058;48.704;9.474;2024-03-23T03:19:21;6.33;;;4.00;;
11996;SDS011;6058;48.704;9.474;2024-03-23T03:21:48;5.23;;;3.93;;
11996;SDS011;6058;48.704;9.474;2024-03-23T03:24:14;5.33;;;4.20;;
11996;SDS011;6058;48.704;9.474;2024-03-23T03:26:41;8.47;;;4.70;;
11996;SDS011;6058;48.704;9.474;2024-03-23T03:29:08;6.17;;;4.77;;
11996;SDS011;6058;48.704;9.474;2024-03-23T03:34:27;6.87;;;4.60;;
11996;SDS011;6058;48.704;9.474;2024-03-23T03:36:55;4.37;;;3.93;;
11996;SDS011;6058;48.704;9.474;2024-03-23T03:39:21;5.53;;;4.60;;
11996;SDS011;6058;48.704;9.474;2024-03-23T03:41:48;5.90;;;4.47;;
11996;SDS011;6058;48.704;9.474;2024-03-23T03:44:15;5.93;;;4.50;;
11996;SDS011;6058;48.704;9.474;2024-03-23T03:46:42;5.37;;;4.73;;
11996;SDS011;6058;48.704;9.474;2024-03-23T03:49:08;5.07;;;4.57;;
11996;SDS011;6058;48.704;9.474;2024-03-23T03:51:36;5.50;;;4.37;;
11996;SDS011;6058;48.704;9.474;2024-03-23T03:54:03;5.00;;;4.50;;
11996;SDS011;6058;48.704;9.474;2024-03-23T03:56:30;4.80;;;4.40;;
11996;SDS011;6058;48.704;9.474;2024-03-23T03:58:56;5.50;;;4.10;;
11996;SDS011;6058;48.704;9.474;2024-03-23T04:01:23;7.33;;;4.03;;
11996;SDS011;6058;48.704;9.474;2024-03-23T04:03:49;5.77;;;4.57;;
11996;SDS011;6058;48.704;9.474;2024-03-23T04:06:18;5.10;;;4.20;;
11996;SDS011;6058;48.704;9.474;2024-03-23T04:08:46;5.47;;;3.90;;
11996;SDS011;6058;48.704;9.474;2024-03-23T04:11:13;6.47;;;4.23;;
11996;SDS011;6058;48.704;9.474;2024-03-23T04:13:39;6.90;;;4.40;;
11996;SDS011;6058;48.704;9.474;2024-03-23T04:16:07;5.83;;;4.33;;
11996;SDS011;6058;48.704;9.474;2024-03-23T04:18:34;4.93;;;4.30;;
11996;SDS011;6058;48.704;9.474;2024-03-23T04:21:01;5.10;;;4.33;;
11996;SDS011;6058;48.704;9.474;2024-03-23T04:23:27;4.10;;;3.70;;
11996;SDS011;6058;48.704;9.474;2024-03-23T04:25:57;4.50;;;3.77;;
11996;SDS011;6058;48.704;9.474;2024-03-23T04:28:28;4.10;;;3.70;;
11996;SDS011;6058;48.704;9.474;2024-03-23T04:30:55;6.13;;;3.97;;
11996;SDS011;6058;48.704;9.474;2024-03-23T04:33:21;5.27;;;4.00;;
11996;SDS011;6058;48.704;9.474;2024-03-23T04:35:48;4.77;;;4.00;;
11996;SDS011;6058;48.704;9.474;2024-03-23T04:38:14;4.63;;;3.93;;
11996;SDS011;6058;48.704;9.474;2024-03-23T04:40:42;5.63;;;4.33;;
11996;SDS011;6058;48.704;9.474;2024-03-23T04:43:11;6.97;;;5.00;;
11996;SDS011;6058;48.704;9.474;2024-03-23T04:45:38;7.17;;;4.20;;
11996;SDS011;6058;48.704;9.474;2024-03-23T04:48:06;6.90;;;4.50;;
11996;SDS011;6058;48.704;9.474;2024-03-23T04:50:33;7.30;;;4.30;;
11996;SDS011;6058;48.704;9.474;2024-03-23T04:53:00;8.53;;;4.40;;
11996;SDS011;6058;48.704;9.474;2024-03-23T04:55:28;4.10;;;3.70;;
11996;SDS011;6058;48.704;9.474;2024-03-23T04:57:56;4.57;;;3.70;;
11996;SDS011;6058;48.704;9.474;2024-03-23T05:00:23;4.70;;;4.03;;
11996;SDS011;6058;48.704;9.474;2024-03-23T05:02:51;5.47;;;3.97;;
11996;SDS011;6058;48.704;9.474;2024-03-23T05:05:18;3.43;;;3.07;;
11996;SDS011;6058;48.704;9.474;2024-03-23T05:07:44;4.63;;;4.00;;
11996;SDS011;6058;48.704;9.474;2024-03-23T05:10:11;3.97;;;3.47;;
11996;SDS011;6058;48.704;9.474;2024-03-23T05:12:38;6.87;;;3.97;;
11996;SDS011;6058;48.704;9.474;2024-03-23T05:15:06;5.37;;;4.10;;
11996;SDS011;6058;48.704;9.474;2024-03-23T05:17:34;3.33;;;2.50;;
11996;SDS011;6058;48.704;9.474;2024-03-23T05:20:02;5.37;;;3.23;;
11996;SDS011;6058;48.704;9.474;2024-03-23T05:22:29;5.10;;;3.47;;
11996;SDS011;6058;48.704;9.474;2024-03-23T05:24:56;4.73;;;3.00;;
11996;SDS011;6058;48.704;9.474;2024-03-23T05:27:23;3.30;;;2.83;;
11996;SDS011;6058;48.704;9.474;2024-03-23T05:29:50;3.47;;;3.17;;
11996;SDS011;6058;48.704;9.474;2024-03-23T05:32:16;6.10;;;4.07;;
11996;SDS011;6058;48.704;9.474;2024-03-23T05:34:45;3.67;;;3.27;;
11996;SDS011;6058;48.704;9.474;2024-03-23T05:37:11;5.30;;;3.77;;
11996;SDS011;6058;48.704;9.474;2024-03-23T05:39:38;7.40;;;4.73;;
11996;SDS011;6058;48.704;9.474;2024-03-23T05:42:04;6.40;;;4.70;;
11996;SDS011;6058;48.704;9.474;2024-03-23T05:44:31;9.60;;;5.93;;
11996;SDS011;6058;48.704;9.474;2024-03-23T05:46:57;8.07;;;6.00;;
11996;SDS011;6058;48.704;9.474;2024-03-23T05:49:25;6.87;;;5.53;;
11996;SDS011;6058;48.704;9.474;2024-03-23T05:51:52;6.47;;;5.13;;
11996;SDS011;6058;48.704;9.474;2024-03-23T05:54:20;4.67;;;3.53;;
11996;SDS011;6058;48.704;9.474;2024-03-23T05:56:46;7.60;;;4.97;;
11996;SDS011;6058;48.704;9.474;2024-03-23T05:59:13;4.40;;;3.33;;
11996;SDS011;6058;48.704;9.474;2024-03-23T06:01:40;6.87;;;4.87;;
11996;SDS011;6058;48.704;9.474;2024-03-23T06:04:06;9.03;;;6.10;;
11996;SDS011;6058;48.704;9.474;2024-03-23T06:06:33;10.17;;;6.50;;
11996;SDS011;6058;48.704;9.474;2024-03-23T06:09:01;3.43;;;2.93;;
11996;SDS011;6058;48.704;9.474;2024-03-23T06:11:28;6.13;;;4.53;;
11996;SDS011;6058;48.704;9.474;2024-03-23T06:13:55;9.13;;;6.20;;
11996;SDS011;6058;48.704;9.474;2024-03-23T06:16:22;7.93;;;6.13;;
11996;SDS011;6058;48.704;9.474;2024-03-23T06:18:49;14.87;;;7.17;;
11996;SDS011;6058;48.704;9.474;2024-03-23T06:21:16;9.63;;;6.90;;
11996;SDS011;6058;48.704;9.474;2024-03-23T06:23:42;8.07;;;5.23;;
11996;SDS011;6058;48.704;9.474;2024-03-23T06:26:14;7.27;;;5.77;;
11996;SDS011;6058;48.704;9.474;2024-03-23T06:28:40;6.33;;;4.87;;
11996;SDS011;6058;48.704;9.474;2024-03-23T06:31:08;8.87;;;5.70;;
11996;SDS011;6058;48.704;9.474;2024-03-23T06:33:35;6.10;;;4.60;;
11996;SDS011;6058;48.704;9.474;2024-03-23T06:36:02;6.93;;;4.80;;
11996;SDS011;6058;48.704;9.474;2024-03-23T06:38:28;5.90;;;4.63;;
11996;SDS011;6058;48.704;9.474;2024-03-23T06:40:55;8.90;;;3.57;;
11996;SDS011;6058;48.704;9.474;2024-03-23T06:43:23;4.93;;;3.40;;
11996;SDS011;6058;48.704;9.474;2024-03-23T06:45:52;3.37;;;2.90;;
11996;SDS011;6058;48.704;9.474;2024-03-23T06:48:18;3.73;;;2.60;;
11996;SDS011;6058;48.704;9.474;2024-03-23T06:50:45;2.67;;;2.10;;
11996;SDS011;6058;48.704;9.474;2024-03-23T06:53:12;3.23;;;2.00;;
11996;SDS011;6058;48.704;9.474;2024-03-23T06:55:39;3.37;;;1.80;;
11996;SDS011;6058;48.704;9.474;2024-03-23T06:58:05;1.57;;;1.40;;
11996;SDS011;6058;48.704;9.474;2024-03-23T07:00:33;1.57;;;1.40;;
11996;SDS011;6058;48.704;9.474;2024-03-23T07:02:59;1.10;;;1.00;;
11996;SDS011;6058;48.704;9.474;2024-03-23T07:05:28;1.10;;;1.00;;
11996;SDS011;6058;48.704;9.474;2024-03-23T07:07:54;1.20;;;1.10;;
11996;SDS011;6058;48.704;9.474;2024-03-23T07:10:22;1.17;;;1.17;;
11996;SDS011;6058;48.704;9.474;2024-03-23T07:12:48;1.73;;;1.63;;
11996;SDS011;6058;48.704;9.474;2024-03-23T07:15:15;1.53;;;1.43;;
11996;SDS011;6058;48.704;9.474;2024-03-23T07:17:46;0.80;;;0.80;;
11996;SDS011;6058;48.704;9.474;2024-03-23T07:20:13;1.33;;;1.17;;
11996;SDS011;6058;48.704;9.474;2024-03-23T07:22:39;0.50;;;0.50;;
11996;SDS011;6058;48.704;9.474;2024-03-23T07:25:06;0.23;;;0.23;;
11996;SDS011;6058;48.704;9.474;2024-03-23T07:27:32;0.47;;;0.40;;
11996;SDS011;6058;48.704;9.474;2024-03-23T07:30:00;0.47;;;0.47;;
11996;SDS011;6058;48.704;9.474;2024-03-23T07:32:26;3.03;;;0.70;;
11996;SDS011;6058;48.704;9.474;2024-03-23T07:34:54;0.40;;;0.40;;
11996;SDS011;6058;48.704;9.474;2024-03-23T07:37:24;0.87;;;0.47;;
11996;SDS011;6058;48.704;9.474;2024-03-23T07:39:50;0.30;;;0.30;;
11996;SDS011;6058;48.704;9.474;2024-03-23T07:42:18;0.30;;;0.30;;
11996;SDS011;6058;48.704;9.474;2024-03-23T07:44:44;0.10;;;0.10;;
11996;SDS011;6058;48.704;9.474;2024-03-23T07:47:11;0.30;;;0.30;;
11996;SDS011;6058;48.704;9.474;2024-03-23T07:49:37;0.40;;;0.33;;
11996;SDS011;6058;48.704;9.474;2024-03-23T07:52:06;0.10;;;0.10;;
11996;SDS011;6058;48.704;9.474;2024-03-23T07:54:33;0.30;;;0.30;;
11996;SDS011;6058;48.704;9.474;2024-03-23T07:57:00;0.10;;;0.10;;
11996;SDS011;6058;48.704;9.474;2024-03-23T07:59:26;0.20;;;0.20;;
11996;SDS011;6058;48.704;9.474;2024-03-23T08:01:56;0.30;;;0.30;;
11996;SDS011;6058;48.704;9.474;2024-03-23T08:04:23;0.13;;;0.10;;
11996;SDS011;6058;48.704;9.474;2024-03-23T08:06:50;0.30;;;0.30;;
11996;SDS011;6058;48.704;9.474;2024-03-23T08:09:17;0.30;;;0.30;;
11996;SDS011;6058;48.704;9.474;2024-03-23T08:11:44;0.10;;;0.10;;
11996;SDS011;6058;48.704;9.474;2024-03-23T08:14:11;0.30;;;0.23;;
11996;SDS011;6058;48.704;9.474;2024-03-23T08:16:38;0.33;;;0.33;;
11996;SDS011;6058;48.704;9.474;2024-03-23T08:19:05;0.20;;;0.20;;
11996;SDS011;6058;48.704;9.474;2024-03-23T08:21:33;0.10;;;0.10;;
11996;SDS011;6058;48.704;9.474;2024-03-23T08:23:59;0.30;;;0.30;;
11996;SDS011;6058;48.704;9.474;2024-03-23T08:26:29;0.13;;;0.10;;
11996;SDS011;6058;48.704;9.474;2024-03-23T08:28:55;0.37;;;0.37;;
11996;SDS011;6058;48.704;9.474;2024-03-23T08:31:22;0.30;;;0.30;;
11996;SDS011;6058;48.704;9.474;2024-03-23T08:33:48;0.37;;;0.20;;
11996;SDS011;6058;48.704;9.474;2024-03-23T08:36:16;0.53;;;0.50;;
11996;SDS011;6058;48.704;9.474;2024-03-23T08:38:42;0.40;;;0.40;;
11996;SDS011;6058;48.704;9.474;2024-03-23T08:41:10;0.47;;;0.47;;
11996;SDS011;6058;48.704;9.474;2024-03-23T08:43:38;1.37;;;0.27;;
11996;SDS011;6058;48.704;9.474;2024-03-23T08:46:06;0.20;;;0.20;;
11996;SDS011;6058;48.704;9.474;2024-03-23T08:48:32;0.40;;;0.40;;
11996;SDS011;6058;48.704;9.474;2024-03-23T08:51:02;0.13;;;0.13;;
11996;SDS011;6058;48.704;9.474;2024-03-23T08:53:29;0.37;;;0.37;;
11996;SDS011;6058;48.704;9.474;2024-03-23T08:55:56;0.40;;;0.30;;
11996;SDS011;6058;48.704;9.474;2024-03-23T08:58:23;0.30;;;0.30;;
11996;SDS011;6058;48.704;9.474;2024-03-23T09:00:51;1.50;;;0.40;;
11996;SDS011;6058;48.704;9.474;2024-03-23T09:03:18;1.30;;;0.80;;
11996;SDS011;6058;48.704;9.474;2024-03-23T09:05:56;0.30;;;0.30;;
11996;SDS011;6058;48.704;9.474;2024-03-23T09:08:23;0.60;;;0.60;;
11996;SDS011;6058;48.704;9.474;2024-03-23T09:10:51;0.50;;;0.40;;
11996;SDS011;6058;48.704;9.474;2024-03-23T09:13:17;0.70;;;0.40;;
11996;SDS011;6058;48.704;9.474;2024-03-23T09:15:45;0.30;;;0.30;;
11996;SDS011;6058;48.704;9.474;2024-03-23T09:18:13;0.40;;;0.40;;
11996;SDS011;6058;48.704;9.474;2024-03-23T09:20:40;1.67;;;0.90;;
11996;SDS011;6058;48.704;9.474;2024-03-23T09:23:06;1.03;;;0.77;;
11996;SDS011;6058;48.704;9.474;2024-03-23T09:25:35;0.40;;;0.40;;
11996;SDS011;6058;48.704;9.474;2024-03-23T09:28:02;1.27;;;0.70;;
11996;SDS011;6058;48.704;9.474;2024-03-23T09:30:30;1.43;;;0.87;;
11996;SDS011;6058;48.704;9.474;2024-03-23T09:33:02;1.00;;;0.90;;
11996;SDS011;6058;48.704;9.474;2024-03-23T09:35:30;1.07;;;0.97;;
11996;SDS011;6058;48.704;9.474;2024-03-23T09:37:57;0.90;;;0.90;;
11996;SDS011;6058;48.704;9.474;2024-03-23T09:40:24;2.37;;;1.07;;
11996;SDS011;6058;48.704;9.474;2024-03-23T09:42:50;1.93;;;1.20;;
11996;SDS011;6058;48.704;9.474;2024-03-23T09:45:20;1.67;;;1.20;;
11996;SDS011;6058;48.704;9.474;2024-03-23T09:47:46;5.13;;;1.40;;
11996;SDS011;6058;48.704;9.474;2024-03-23T09:50:15;2.00;;;1.30;;
11996;SDS011;6058;48.704;9.474;2024-03-23T09:52:43;4.90;;;1.37;;
11996;SDS011;6058;48.704;9.474;2024-03-23T09:55:10;3.50;;;1.37;;
11996;SDS011;6058;48.704;9.474;2024-03-23T09:57:36;1.73;;;1.50;;
11996;SDS011;6058;48.704;9.474;2024-03-23T10:00:04;2.13;;;1.23;;
11996;SDS011;6058;48.704;9.474;2024-03-23T10:02:30;3.80;;;1.07;;
11996;SDS011;6058;48.704;9.474;2024-03-23T10:04:57;5.63;;;1.47;;
11996;SDS011;6058;48.704;9.474;2024-03-23T10:07:24;4.07;;;1.53;;
11996;SDS011;6058;48.704;9.474;2024-03-23T10:09:52;4.20;;;1.60;;
11996;SDS011;6058;48.704;9.474;2024-03-23T10:12:19;2.73;;;1.50;;
11996;SDS011;6058;48.704;9.474;2024-03-23T10:17:40;2.73;;;1.43;;
11996;SDS011;6058;48.704;9.474;2024-03-23T10:20:09;1.80;;;1.20;;
11996;SDS011;6058;48.704;9.474;2024-03-23T10:22:36;3.67;;;1.30;;
11996;SDS011;6058;48.704;9.474;2024-03-23T10:25:07;7.10;;;1.97;;
11996;SDS011;6058;48.704;9.474;2024-03-23T10:27:34;2.60;;;2.13;;
11996;SDS011;6058;48.704;9.474;2024-03-23T10:30:07;2.47;;;1.60;;
11996;SDS011;6058;48.704;9.474;2024-03-23T10:32:34;3.00;;;1.43;;
11996;SDS011;6058;48.704;9.474;2024-03-23T10:37:47;2.37;;;1.67;;
11996;SDS011;6058;48.704;9.474;2024-03-23T10:40:16;5.10;;;1.57;;
11996;SDS011;6058;48.704;9.474;2024-03-23T10:42:43;1.50;;;0.83;;
11996;SDS011;6058;48.704;9.474;2024-03-23T10:45:10;2.80;;;1.70;;
11996;SDS011;6058;48.704;9.474;2024-03-23T10:47:37;5.10;;;1.93;;
11996;SDS011;6058;48.704;9.474;2024-03-23T10:50:04;3.80;;;1.67;;
11996;SDS011;6058;48.704;9.474;2024-03-23T10:52:30;2.03;;;1.80;;
11996;SDS011;6058;48.704;9.474;2024-03-23T10:54:57;6.43;;;1.90;;
11996;SDS011;6058;48.704;9.474;2024-03-23T10:57:27;3.73;;;1.40;;
11996;SDS011;6058;48.704;9.474;2024-03-23T10:59:56;2.37;;;1.80;;
11996;SDS011;6058;48.704;9.474;2024-03-23T11:02:22;4.97;;;2.20;;
11996;SDS011;6058;48.704;9.474;2024-03-23T11:04:51;1.87;;;1.20;;
11996;SDS011;6058;48.704;9.474;2024-03-23T11:07:28;1.30;;;1.20;;
11996;SDS011;6058;48.704;9.474;2024-03-23T11:09:55;4.07;;;1.37;;
11996;SDS011;6058;48.704;9.474;2024-03-23T11:12:26;3.93;;;1.97;;
11996;SDS011;6058;48.704;9.474;2024-03-23T11:14:57;3.20;;;1.60;;
11996;SDS011;6058;48.704;9.474;2024-03-23T11:17:24;1.30;;;1.00;;
11996;SDS011;6058;48.704;9.474;2024-03-23T11:19:55;3.67;;;0.83;;
11996;SDS011;6058;48.704;9.474;2024-03-23T11:22:38;3.53;;;1.70;;
11996;SDS011;6058;48.704;9.474;2024-03-23T11:25:15;3.53;;;1.73;;
11996;SDS011;6058;48.704;9.474;2024-03-23T11:27:43;0.80;;;0.80;;
11996;SDS011;6058;48.704;9.474;2024-03-23T11:30:13;1.03;;;0.93;;
11996;SDS011;6058;48.704;9.474;2024-03-23T11:32:39;1.13;;;0.90;;
11996;SDS011;6058;48.704;9.474;2024-03-23T11:35:07;1.10;;;1.00;;
11996;SDS011;6058;48.704;9.474;2024-03-23T11:37:35;1.17;;;1.07;;
11996;SDS011;6058;48.704;9.474;2024-03-23T11:40:16;2.10;;;1.30;;
11996;SDS011;6058;48.704;9.474;2024-03-23T11:42:43;3.97;;;1.23;;
11996;SDS011;6058;48.704;9.474;2024-03-23T11:47:41;1.37;;;1.27;;
11996;SDS011;6058;48.704;9.474;2024-03-23T11:50:08;4.47;;;1.63;;
11996;SDS011;6058;48.704;9.474;2024-03-23T11:52:35;4.63;;;1.77;;
11996;SDS011;6058;48.704;9.474;2024-03-23T11:55:04;2.67;;;1.50;;
11996;SDS011;6058;48.704;9.474;2024-03-23T11:57:32;1.47;;;1.20;;
11996;SDS011;6058;48.704;9.474;2024-03-23T12:00:01;1.20;;;1.00;;
11996;SDS011;6058;48.704;9.474;2024-03-23T12:02:27;2.80;;;1.30;;
11996;SDS011;6058;48.704;9.474;2024-03-23T12:04:54;3.53;;;1.30;;
11996;SDS011;6058;48.704;9.474;2024-03-23T12:07:21;2.53;;;1.10;;
11996;SDS011;6058;48.704;9.474;2024-03-23T12:10:02;1.33;;;0.90;;
11996;SDS011;6058;48.704;9.474;2024-03-23T12:12:28;1.87;;;1.40;;
11996;SDS011;6058;48.704;9.474;2024-03-23T12:15:04;1.53;;;1.10;;
11996;SDS011;6058;48.704;9.474;2024-03-23T12:17:31;1.90;;;1.30;;
11996;SDS011;6058;48.704;9.474;2024-03-23T12:19:59;1.00;;;1.00;;
11996;SDS011;6058;48.704;9.474;2024-03-23T12:22:26;3.77;;;1.23;;
11996;SDS011;6058;48.704;9.474;2024-03-23T12:24:54;3.50;;;1.10;;
11996;SDS011;6058;48.704;9.474;2024-03-23T12:27:20;4.33;;;1.30;;
11996;SDS011;6058;48.704;9.474;2024-03-23T12:29:47;3.90;;;1.83;;
11996;SDS011;6058;48.704;9.474;2024-03-23T12:32:15;2.23;;;1.40;;
11996;SDS011;6058;48.704;9.474;2024-03-23T12:34:43;2.23;;;1.40;;
11996;SDS011;6058;48.704;9.474;2024-03-23T12:37:09;2.57;;;1.33;;
11996;SDS011;6058;48.704;9.474;2024-03-23T12:39:37;3.33;;;1.47;;
11996;SDS011;6058;48.704;9.474;2024-03-23T12:42:03;3.53;;;1.10;;
11996;SDS011;6058;48.704;9.474;2024-03-23T12:44:31;3.03;;;1.40;;
11996;SDS011;6058;48.704;9.474;2024-03-23T12:46:57;3.13;;;1.20;;
11996;SDS011;6058;48.704;9.474;2024-03-23T12:49:25;2.83;;;1.33;;
11996;SDS011;6058;48.704;9.474;2024-03-23T12:51:55;2.57;;;1.30;;
11996;SDS011;6058;48.704;9.474;2024-03-23T12:54:23;1.03;;;0.97;;
11996;SDS011;6058;48.704;9.474;2024-03-23T12:56:59;3.20;;;1.30;;
11996;SDS011;6058;48.704;9.474;2024-03-23T12:59:27;1.13;;;0.97;;
11996;SDS011;6058;48.704;9.474;2024-03-23T13:01:53;2.00;;;1.00;;
11996;SDS011;6058;48.704;9.474;2024-03-23T13:04:21;4.27;;;1.00;;
11996;SDS011;6058;48.704;9.474;2024-03-23T13:06:48;3.73;;;1.20;;
11996;SDS011;6058;48.704;9.474;2024-03-23T13:09:15;2.70;;;1.30;;
11996;SDS011;6058;48.704;9.474;2024-03-23T13:11:42;3.83;;;1.60;;
11996;SDS011;6058;48.704;9.474;2024-03-23T13:14:09;3.63;;;1.20;;
11996;SDS011;6058;48.704;9.474;2024-03-23T13:16:35;3.50;;;1.10;;
11996;SDS011;6058;48.704;9.474;2024-03-23T13:19:02;6.27;;;1.87;;
11996;SDS011;6058;48.704;9.474;2024-03-23T13:21:29;5.13;;;1.80;;
11996;SDS011;6058;48.704;9.474;2024-03-23T13:23:58;7.03;;;2.03;;
11996;SDS011;6058;48.704;9.474;2024-03-23T13:26:24;2.87;;;1.33;;
11996;SDS011;6058;48.704;9.474;2024-03-23T13:28:51;2.73;;;1.23;;
11996;SDS011;6058;48.704;9.474;2024-03-23T13:31:17;2.73;;;1.37;;
11996;SDS011;6058;48.704;9.474;2024-03-23T13:33:44;2.23;;;1.37;;
11996;SDS011;6058;48.704;9.474;2024-03-23T13:36:10;5.17;;;1.43;;
11996;SDS011;6058;48.704;9.474;2024-03-23T13:38:38;3.87;;;1.37;;
11996;SDS011;6058;48.704;9.474;2024-03-23T13:41:05;1.57;;;1.20;;
11996;SDS011;6058;48.704;9.474;2024-03-23T13:43:34;2.27;;;1.00;;
11996;SDS011;6058;48.704;9.474;2024-03-23T13:46:00;2.43;;;1.10;;
11996;SDS011;6058;48.704;9.474;2024-03-23T13:48:27;2.37;;;1.13;;
11996;SDS011;6058;48.704;9.474;2024-03-23T13:50:57;1.60;;;1.20;;
11996;SDS011;6058;48.704;9.474;2024-03-23T13:53:25;1.40;;;0.90;;
11996;SDS011;6058;48.704;9.474;2024-03-23T13:55:51;1.97;;;1.37;;
11996;SDS011;6058;48.704;9.474;2024-03-23T13:58:19;2.20;;;0.73;;
11996;SDS011;6058;48.704;9.474;2024-03-23T14:00:46;0.77;;;0.77;;
11996;SDS011;6058;48.704;9.474;2024-03-23T14:03:13;2.63;;;0.70;;
11996;SDS011;6058;48.704;9.474;2024-03-23T14:05:39;0.80;;;0.80;;
11996;SDS011;6058;48.704;9.474;2024-03-23T14:08:09;1.97;;;0.80;;
11996;SDS011;6058;48.704;9.474;2024-03-23T14:10:36;2.00;;;0.80;;
11996;SDS011;6058;48.704;9.474;2024-03-23T14:13:03;1.20;;;0.77;;
11996;SDS011;6058;48.704;9.474;2024-03-23T14:15:31;1.33;;;0.83;;
11996;SDS011;6058;48.704;9.474;2024-03-23T14:17:59;0.50;;;0.40;;
11996;SDS011;6058;48.704;9.474;2024-03-23T14:20:25;3.07;;;0.67;;
11996;SDS011;6058;48.704;9.474;2024-03-23T14:22:53;0.53;;;0.53;;
11996;SDS011;6058;48.704;9.474;2024-03-23T14:25:21;1.30;;;0.90;;
11996;SDS011;6058;48.704;9.474;2024-03-23T14:27:52;4.07;;;1.23;;
11996;SDS011;6058;48.704;9.474;2024-03-23T14:30:19;0.97;;;0.63;;
11996;SDS011;6058;48.704;9.474;2024-03-23T14:32:46;0.40;;;0.40;;
11996;SDS011;6058;48.704;9.474;2024-03-23T14:35:14;2.03;;;0.60;;
11996;SDS011;6058;48.704;9.474;2024-03-23T14:37:40;1.73;;;0.77;;
11996;SDS011;6058;48.704;9.474;2024-03-23T14:40:08;0.77;;;0.40;;
11996;SDS011;6058;48.704;9.474;2024-03-23T14:42:34;1.47;;;0.80;;
11996;SDS011;6058;48.704;9.474;2024-03-23T14:45:01;2.03;;;1.00;;
11996;SDS011;6058;48.704;9.474;2024-03-23T14:47:27;0.60;;;0.60;;
11996;SDS011;6058;48.704;9.474;2024-03-23T14:49:57;3.10;;;0.80;;
11996;SDS011;6058;48.704;9.474;2024-03-23T14:52:23;1.23;;;0.50;;
11996;SDS011;6058;48.704;9.474;2024-03-23T14:54:51;0.60;;;0.60;;
11996;SDS011;6058;48.704;9.474;2024-03-23T14:57:17;0.27;;;0.27;;
11996;SDS011;6058;48.704;9.474;2024-03-23T14:59:45;0.87;;;0.47;;
11996;SDS011;6058;48.704;9.474;2024-03-23T15:02:11;0.83;;;0.40;;
11996;SDS011;6058;48.704;9.474;2024-03-23T15:04:38;0.33;;;0.33;;
11996;SDS011;6058;48.704;9.474;2024-03-23T15:07:08;0.63;;;0.30;;
11996;SDS011;6058;48.704;9.474;2024-03-23T15:09:35;0.87;;;0.53;;
11996;SDS011;6058;48.704;9.474;2024-03-23T15:12:01;1.57;;;0.90;;
11996;SDS011;6058;48.704;9.474;2024-03-23T15:14:28;0.40;;;0.40;;
11996;SDS011;6058;48.704;9.474;2024-03-23T15:16:55;0.80;;;0.80;;
11996;SDS011;6058;48.704;9.474;2024-03-23T15:19:22;1.07;;;0.60;;
11996;SDS011;6058;48.704;9.474;2024-03-23T15:21:48;0.40;;;0.40;;
11996;SDS011;6058;48.704;9.474;2024-03-23T15:24:16;0.93;;;0.40;;
11996;SDS011;6058;48.704;9.474;2024-03-23T15:26:42;0.30;;;0.30;;
11996;SDS011;6058;48.704;9.474;2024-03-23T15:29:10;0.67;;;0.60;;
11996;SDS011;6058;48.704;9.474;2024-03-23T15:31:37;1.40;;;0.57;;
11996;SDS011;6058;48.704;9.474;2024-03-23T15:34:10;0.60;;;0.30;;
11996;SDS011;6058;48.704;9.474;2024-03-23T15:36:37;0.40;;;0.33;;
11996;SDS011;6058;48.704;9.474;2024-03-23T15:39:04;1.53;;;0.67;;
11996;SDS011;6058;48.704;9.474;2024-03-23T15:41:32;1.40;;;0.70;;
11996;SDS011;6058;48.704;9.474;2024-03-23T15:44:00;0.40;;;0.40;;
11996;SDS011;6058;48.704;9.474;2024-03-23T15:46:27;6.53;;;2.43;;
11996;SDS011;6058;48.704;9.474;2024-03-23T15:48:54;0.50;;;0.40;;
11996;SDS011;6058;48.704;9.474;2024-03-23T15:51:20;1.97;;;0.80;;
11996;SDS011;6058;48.704;9.474;2024-03-23T15:53:48;0.63;;;0.40;;
11996;SDS011;6058;48.704;9.474;2024-03-23T15:56:19;0.57;;;0.57;;
11996;SDS011;6058;48.704;9.474;2024-03-23T15:58:49;0.60;;;0.60;;
11996;SDS011;6058;48.704;9.474;2024-03-23T16:01:15;0.83;;;0.40;;
11996;SDS011;6058;48.704;9.474;2024-03-23T16:03:42;0.77;;;0.60;;
11996;SDS011;6058;48.704;9.474;2024-03-23T16:06:08;0.20;;;0.20;;